sensor_id;sensor_type;location;lat;lon;timestamp;pressure;altitude;pressure_sealevel;temperature
34023;BMP280;20673;48.980;8.138;2022-09-02T00:01:29;100037.63;;;16.99
34023;BMP280;20673;48.980;8.138;2022-09-02T00:04:01;100036.19;;;16.94
34023;BMP280;20673;48.980;8.138;2022-09-02T00:06:29;100034.32;;;16.93
34023;BMP280;20673;48.980;8.138;2022-09-02T00:08:58;100025.94;;;16.88
34023;BMP280;20673;48.980;8.138;2022-09-02T00:11:28;100028.53;;;16.83
34023;BMP280;20673;48.980;8.138;2022-09-02T00:13:56;100025.83;;;16.82
34023;BMP280;20673;48.980;8.138;2022-09-02T00:16:24;100029.11;;;16.78
34023;BMP280;20673;48.980;8.138;2022-09-02T00:18:54;100029.42;;;16.74
34023;BMP280;20673;48.980;8.138;2022-09-02T00:21:21;100028.79;;;16.70
34023;BMP280;20673;48.980;8.138;2022-09-02T00:23:50;100024.29;;;16.68
34023;BMP280;20673;48.980;8.138;2022-09-02T00:26:16;100021.81;;;16.62
34023;BMP280;20673;48.980;8.138;2022-09-02T00:28:43;100019.45;;;16.59
34023;BMP280;20673;48.980;8.138;2022-09-02T00:31:09;100016.73;;;16.55
34023;BMP280;20673;48.980;8.138;2022-09-02T00:33:35;100020.36;;;16.57
34023;BMP280;20673;48.980;8.138;2022-09-02T00:36:03;100015.99;;;16.54
34023;BMP280;20673;48.980;8.138;2022-09-02T00:38:31;100020.73;;;16.54
34023;BMP280;20673;48.980;8.138;2022-09-02T00:41:01;100019.00;;;16.52
34023;BMP280;20673;48.980;8.138;2022-09-02T00:43:51;100022.64;;;16.49
34023;BMP280;20673;48.980;8.138;2022-09-02T00:46:23;100022.18;;;16.46
34023;BMP280;20673;48.980;8.138;2022-09-02T00:51:42;100018.89;;;16.40
34023;BMP280;20673;48.980;8.138;2022-09-02T00:54:06;100020.63;;;16.38
34023;BMP280;20673;48.980;8.138;2022-09-02T00:56:35;100019.04;;;16.34
34023;BMP280;20673;48.980;8.138;2022-09-02T00:59:02;100019.42;;;16.31
34023;BMP280;20673;48.980;8.138;2022-09-02T01:01:28;100015.43;;;16.30
34023;BMP280;20673;48.980;8.138;2022-09-02T01:03:54;100017.33;;;16.23
34023;BMP280;20673;48.980;8.138;2022-09-02T01:06:24;100019.72;;;16.19
34023;BMP280;20673;48.980;8.138;2022-09-02T01:08:56;100015.13;;;16.13
34023;BMP280;20673;48.980;8.138;2022-09-02T01:11:47;100016.09;;;16.09
34023;BMP280;20673;48.980;8.138;2022-09-02T01:14:14;100015.25;;;16.07
34023;BMP280;20673;48.980;8.138;2022-09-02T01:16:49;100020.13;;;16.01
34023;BMP280;20673;48.980;8.138;2022-09-02T01:19:36;100025.58;;;15.98
34023;BMP280;20673;48.980;8.138;2022-09-02T01:22:22;100023.51;;;15.97
34023;BMP280;20673;48.980;8.138;2022-09-02T01:24:48;100027.09;;;15.97
34023;BMP280;20673;48.980;8.138;2022-09-02T01:27:19;100023.50;;;15.94
34023;BMP280;20673;48.980;8.138;2022-09-02T01:29:51;100021.08;;;15.90
34023;BMP280;20673;48.980;8.138;2022-09-02T01:32:18;100017.07;;;15.88
34023;BMP280;20673;48.980;8.138;2022-09-02T01:34:44;100022.39;;;15.85
34023;BMP280;20673;48.980;8.138;2022-09-02T01:37:10;100017.68;;;15.82
34023;BMP280;20673;48.980;8.138;2022-09-02T01:39:36;100012.01;;;15.83
34023;BMP280;20673;48.980;8.138;2022-09-02T01:42:03;100015.97;;;15.81
34023;BMP280;20673;48.980;8.138;2022-09-02T01:44:29;100017.40;;;15.80
34023;BMP280;20673;48.980;8.138;2022-09-02T01:46:56;100016.17;;;15.78
34023;BMP280;20673;48.980;8.138;2022-09-02T01:49:22;100010.70;;;15.74
34023;BMP280;20673;48.980;8.138;2022-09-02T01:51:49;100010.31;;;15.73
34023;BMP280;20673;48.980;8.138;2022-09-02T01:54:16;100010.18;;;15.72
34023;BMP280;20673;48.980;8.138;2022-09-02T01:56:42;100009.61;;;15.72
34023;BMP280;20673;48.980;8.138;2022-09-02T01:59:10;100007.17;;;15.67
34023;BMP280;20673;48.980;8.138;2022-09-02T02:01:38;100005.99;;;15.64
34023;BMP280;20673;48.980;8.138;2022-09-02T02:04:04;100001.48;;;15.63
34023;BMP280;20673;48.980;8.138;2022-09-02T02:06:30;100005.35;;;15.61
34023;BMP280;20673;48.980;8.138;2022-09-02T02:08:56;100003.67;;;15.61
34023;BMP280;20673;48.980;8.138;2022-09-02T02:11:24;99997.61;;;15.59
34023;BMP280;20673;48.980;8.138;2022-09-02T02:13:50;99998.48;;;15.57
34023;BMP280;20673;48.980;8.138;2022-09-02T02:16:17;99998.89;;;15.57
34023;BMP280;20673;48.980;8.138;2022-09-02T02:18:43;99993.93;;;15.53
34023;BMP280;20673;48.980;8.138;2022-09-02T02:21:10;99995.14;;;15.50
34023;BMP280;20673;48.980;8.138;2022-09-02T02:23:36;99997.76;;;15.48
34023;BMP280;20673;48.980;8.138;2022-09-02T02:26:03;99996.68;;;15.41
34023;BMP280;20673;48.980;8.138;2022-09-02T02:28:29;99995.72;;;15.41
34023;BMP280;20673;48.980;8.138;2022-09-02T02:30:56;100000.50;;;15.41
34023;BMP280;20673;48.980;8.138;2022-09-02T02:33:24;99995.11;;;15.39
34023;BMP280;20673;48.980;8.138;2022-09-02T02:35:51;99996.81;;;15.41
34023;BMP280;20673;48.980;8.138;2022-09-02T02:38:17;99999.59;;;15.38
34023;BMP280;20673;48.980;8.138;2022-09-02T02:40:43;100000.68;;;15.33
34023;BMP280;20673;48.980;8.138;2022-09-02T02:43:09;99997.06;;;15.34
34023;BMP280;20673;48.980;8.138;2022-09-02T02:45:35;99999.52;;;15.38
34023;BMP280;20673;48.980;8.138;2022-09-02T02:48:02;100003.03;;;15.38
34023;BMP280;20673;48.980;8.138;2022-09-02T02:50:29;100001.67;;;15.36
34023;BMP280;20673;48.980;8.138;2022-09-02T02:52:55;100003.98;;;15.35
34023;BMP280;20673;48.980;8.138;2022-09-02T02:55:23;100003.29;;;15.32
34023;BMP280;20673;48.980;8.138;2022-09-02T02:57:50;100000.28;;;15.31
34023;BMP280;20673;48.980;8.138;2022-09-02T03:00:27;100000.34;;;15.28
34023;BMP280;20673;48.980;8.138;2022-09-02T03:02:56;99995.54;;;15.27
34023;BMP280;20673;48.980;8.138;2022-09-02T03:05:22;100001.86;;;15.26
34023;BMP280;20673;48.980;8.138;2022-09-02T03:07:49;99998.91;;;15.23
34023;BMP280;20673;48.980;8.138;2022-09-02T03:10:16;99993.65;;;15.21
34023;BMP280;20673;48.980;8.138;2022-09-02T03:12:43;99993.71;;;15.18
34023;BMP280;20673;48.980;8.138;2022-09-02T03:15:15;99987.97;;;15.15
34023;BMP280;20673;48.980;8.138;2022-09-02T03:17:47;99991.98;;;15.14
34023;BMP280;20673;48.980;8.138;2022-09-02T03:20:15;99995.04;;;15.14
34023;BMP280;20673;48.980;8.138;2022-09-02T03:22:44;99991.06;;;15.09
34023;BMP280;20673;48.980;8.138;2022-09-02T03:25:16;99991.36;;;15.09
34023;BMP280;20673;48.980;8.138;2022-09-02T03:27:42;99999.83;;;15.08
34023;BMP280;20673;48.980;8.138;2022-09-02T03:30:16;99995.18;;;15.07
34023;BMP280;20673;48.980;8.138;2022-09-02T03:32:43;99998.95;;;15.06
34023;BMP280;20673;48.980;8.138;2022-09-02T03:35:13;99996.90;;;15.00
34023;BMP280;20673;48.980;8.138;2022-09-02T03:37:40;99993.25;;;15.02
34023;BMP280;20673;48.980;8.138;2022-09-02T03:40:12;99990.53;;;15.01
34023;BMP280;20673;48.980;8.138;2022-09-02T03:42:39;99991.03;;;15.01
34023;BMP280;20673;48.980;8.138;2022-09-02T03:45:08;99995.81;;;15.00
34023;BMP280;20673;48.980;8.138;2022-09-02T03:47:35;99995.55;;;14.96
34023;BMP280;20673;48.980;8.138;2022-09-02T03:50:03;99999.31;;;14.97
34023;BMP280;20673;48.980;8.138;2022-09-02T03:52:29;99992.33;;;14.97
34023;BMP280;20673;48.980;8.138;2022-09-02T03:54:56;99995.22;;;14.95
34023;BMP280;20673;48.980;8.138;2022-09-02T03:57:22;99995.65;;;14.94
34023;BMP280;20673;48.980;8.138;2022-09-02T03:59:50;99994.51;;;14.95
34023;BMP280;20673;48.980;8.138;2022-09-02T04:02:17;99998.43;;;14.92
34023;BMP280;20673;48.980;8.138;2022-09-02T04:04:43;99993.55;;;14.88
34023;BMP280;20673;48.980;8.138;2022-09-02T04:07:09;99999.29;;;14.87
34023;BMP280;20673;48.980;8.138;2022-09-02T04:09:36;99999.90;;;14.82
34023;BMP280;20673;48.980;8.138;2022-09-02T04:12:04;99993.11;;;14.80
34023;BMP280;20673;48.980;8.138;2022-09-02T04:14:30;99995.39;;;14.75
34023;BMP280;20673;48.980;8.138;2022-09-02T04:16:56;99996.14;;;14.75
34023;BMP280;20673;48.980;8.138;2022-09-02T04:19:23;99996.59;;;14.75
34023;BMP280;20673;48.980;8.138;2022-09-02T04:21:49;99997.58;;;14.72
34023;BMP280;20673;48.980;8.138;2022-09-02T04:24:15;99998.93;;;14.67
34023;BMP280;20673;48.980;8.138;2022-09-02T04:26:41;99994.15;;;14.61
34023;BMP280;20673;48.980;8.138;2022-09-02T04:29:07;99990.51;;;14.55
34023;BMP280;20673;48.980;8.138;2022-09-02T04:31:34;99991.08;;;14.51
34023;BMP280;20673;48.980;8.138;2022-09-02T04:34:01;99997.31;;;14.48
34023;BMP280;20673;48.980;8.138;2022-09-02T04:36:28;99991.11;;;14.43
34023;BMP280;20673;48.980;8.138;2022-09-02T04:38:57;99999.61;;;14.39
34023;BMP280;20673;48.980;8.138;2022-09-02T04:41:27;99997.76;;;14.32
34023;BMP280;20673;48.980;8.138;2022-09-02T04:43:58;100001.79;;;14.24
34023;BMP280;20673;48.980;8.138;2022-09-02T04:46:25;100001.57;;;14.16
34023;BMP280;20673;48.980;8.138;2022-09-02T04:48:51;100004.37;;;14.14
34023;BMP280;20673;48.980;8.138;2022-09-02T04:51:21;99999.42;;;14.10
34023;BMP280;20673;48.980;8.138;2022-09-02T04:53:50;99999.85;;;14.04
34023;BMP280;20673;48.980;8.138;2022-09-02T04:56:24;100005.03;;;14.00
34023;BMP280;20673;48.980;8.138;2022-09-02T04:58:51;100000.08;;;13.98
34023;BMP280;20673;48.980;8.138;2022-09-02T05:01:22;100005.37;;;13.99
34023;BMP280;20673;48.980;8.138;2022-09-02T05:03:49;100003.87;;;13.97
34023;BMP280;20673;48.980;8.138;2022-09-02T05:06:21;100001.87;;;13.93
34023;BMP280;20673;48.980;8.138;2022-09-02T05:08:48;100001.00;;;13.95
34023;BMP280;20673;48.980;8.138;2022-09-02T05:11:19;100000.70;;;13.97
34023;BMP280;20673;48.980;8.138;2022-09-02T05:13:47;100001.83;;;13.97
34023;BMP280;20673;48.980;8.138;2022-09-02T05:16:24;99996.43;;;14.00
34023;BMP280;20673;48.980;8.138;2022-09-02T05:18:51;99999.98;;;14.01
34023;BMP280;20673;48.980;8.138;2022-09-02T05:21:17;100002.73;;;14.02
34023;BMP280;20673;48.980;8.138;2022-09-02T05:23:44;100005.08;;;14.05
34023;BMP280;20673;48.980;8.138;2022-09-02T05:26:11;100002.00;;;14.11
34023;BMP280;20673;48.980;8.138;2022-09-02T05:28:40;100004.97;;;14.13
34023;BMP280;20673;48.980;8.138;2022-09-02T05:31:13;100007.87;;;14.17
34023;BMP280;20673;48.980;8.138;2022-09-02T05:33:40;100011.67;;;14.21
34023;BMP280;20673;48.980;8.138;2022-09-02T05:36:13;100016.50;;;14.25
34023;BMP280;20673;48.980;8.138;2022-09-02T05:38:41;100015.73;;;14.28
34023;BMP280;20673;48.980;8.138;2022-09-02T05:41:12;100015.04;;;14.35
34023;BMP280;20673;48.980;8.138;2022-09-02T05:43:42;100017.96;;;14.40
34023;BMP280;20673;48.980;8.138;2022-09-02T05:46:14;100014.38;;;14.48
34023;BMP280;20673;48.980;8.138;2022-09-02T05:48:43;100010.62;;;14.54
34023;BMP280;20673;48.980;8.138;2022-09-02T05:51:29;100003.45;;;14.59
34023;BMP280;20673;48.980;8.138;2022-09-02T05:53:58;100004.89;;;14.67
34023;BMP280;20673;48.980;8.138;2022-09-02T05:56:26;100002.59;;;14.80
34023;BMP280;20673;48.980;8.138;2022-09-02T05:58:55;100006.75;;;14.85
34023;BMP280;20673;48.980;8.138;2022-09-02T06:01:23;100006.92;;;14.92
34023;BMP280;20673;48.980;8.138;2022-09-02T06:03:50;100010.80;;;15.00
34023;BMP280;20673;48.980;8.138;2022-09-02T06:06:18;100007.15;;;15.06
34023;BMP280;20673;48.980;8.138;2022-09-02T06:08:45;100008.47;;;15.15
34023;BMP280;20673;48.980;8.138;2022-09-02T06:11:12;100005.98;;;15.23
34023;BMP280;20673;48.980;8.138;2022-09-02T06:13:41;100006.73;;;15.31
34023;BMP280;20673;48.980;8.138;2022-09-02T06:16:11;100002.98;;;15.39
34023;BMP280;20673;48.980;8.138;2022-09-02T06:18:38;100000.95;;;15.52
34023;BMP280;20673;48.980;8.138;2022-09-02T06:21:05;99995.05;;;15.55
34023;BMP280;20673;48.980;8.138;2022-09-02T06:23:35;100000.47;;;15.68
34023;BMP280;20673;48.980;8.138;2022-09-02T06:26:03;100001.55;;;15.77
34023;BMP280;20673;48.980;8.138;2022-09-02T06:28:30;100000.78;;;15.88
34023;BMP280;20673;48.980;8.138;2022-09-02T06:30:57;99998.92;;;16.02
34023;BMP280;20673;48.980;8.138;2022-09-02T06:33:23;99996.48;;;16.09
34023;BMP280;20673;48.980;8.138;2022-09-02T06:35:49;100000.23;;;16.22
34023;BMP280;20673;48.980;8.138;2022-09-02T06:38:17;100001.35;;;16.31
34023;BMP280;20673;48.980;8.138;2022-09-02T06:40:51;100003.60;;;16.39
34023;BMP280;20673;48.980;8.138;2022-09-02T06:43:17;100003.76;;;16.53
34023;BMP280;20673;48.980;8.138;2022-09-02T06:45:44;100005.12;;;16.64
34023;BMP280;20673;48.980;8.138;2022-09-02T06:48:11;99997.19;;;16.77
34023;BMP280;20673;48.980;8.138;2022-09-02T06:50:44;100000.62;;;16.87
34023;BMP280;20673;48.980;8.138;2022-09-02T06:53:11;99997.67;;;16.96
34023;BMP280;20673;48.980;8.138;2022-09-02T06:55:41;99995.15;;;17.08
34023;BMP280;20673;48.980;8.138;2022-09-02T06:58:08;99993.47;;;17.16
34023;BMP280;20673;48.980;8.138;2022-09-02T07:00:36;99995.54;;;17.31
34023;BMP280;20673;48.980;8.138;2022-09-02T07:03:04;99994.11;;;17.41
34023;BMP280;20673;48.980;8.138;2022-09-02T07:06:08;99995.85;;;17.55
34023;BMP280;20673;48.980;8.138;2022-09-02T07:08:41;99991.88;;;17.71
34023;BMP280;20673;48.980;8.138;2022-09-02T07:11:21;99988.28;;;17.85
34023;BMP280;20673;48.980;8.138;2022-09-02T07:13:49;99988.70;;;17.87
34023;BMP280;20673;48.980;8.138;2022-09-02T07:16:16;99981.97;;;17.97
34023;BMP280;20673;48.980;8.138;2022-09-02T07:18:43;99978.43;;;18.08
34023;BMP280;20673;48.980;8.138;2022-09-02T07:21:11;99979.39;;;18.22
34023;BMP280;20673;48.980;8.138;2022-09-02T07:23:38;99980.33;;;18.38
34023;BMP280;20673;48.980;8.138;2022-09-02T07:26:12;99987.51;;;18.52
34023;BMP280;20673;48.980;8.138;2022-09-02T07:28:38;99980.23;;;18.64
34023;BMP280;20673;48.980;8.138;2022-09-02T07:31:09;99979.27;;;18.62
34023;BMP280;20673;48.980;8.138;2022-09-02T07:33:36;99980.17;;;18.85
34023;BMP280;20673;48.980;8.138;2022-09-02T07:36:05;99978.58;;;18.94
34023;BMP280;20673;48.980;8.138;2022-09-02T07:38:32;99978.39;;;19.09
34023;BMP280;20673;48.980;8.138;2022-09-02T07:41:00;99977.57;;;19.24
34023;BMP280;20673;48.980;8.138;2022-09-02T07:43:28;99979.97;;;19.37
34023;BMP280;20673;48.980;8.138;2022-09-02T07:45:56;99976.81;;;19.52
34023;BMP280;20673;48.980;8.138;2022-09-02T07:48:23;99975.89;;;19.56
34023;BMP280;20673;48.980;8.138;2022-09-02T07:50:50;99977.51;;;19.81
34023;BMP280;20673;48.980;8.138;2022-09-02T07:53:17;99980.83;;;20.00
34023;BMP280;20673;48.980;8.138;2022-09-02T07:55:44;99974.61;;;20.16
34023;BMP280;20673;48.980;8.138;2022-09-02T07:58:13;99978.48;;;20.28
34023;BMP280;20673;48.980;8.138;2022-09-02T08:00:40;99980.02;;;20.50
34023;BMP280;20673;48.980;8.138;2022-09-02T08:03:09;99984.92;;;20.71
34023;BMP280;20673;48.980;8.138;2022-09-02T08:05:37;99976.78;;;20.84
34023;BMP280;20673;48.980;8.138;2022-09-02T08:08:05;99979.86;;;21.06
34023;BMP280;20673;48.980;8.138;2022-09-02T08:10:35;99985.31;;;21.37
34023;BMP280;20673;48.980;8.138;2022-09-02T08:13:03;99980.47;;;21.35
34023;BMP280;20673;48.980;8.138;2022-09-02T08:15:33;99978.83;;;21.48
34023;BMP280;20673;48.980;8.138;2022-09-02T08:18:02;99972.84;;;21.70
34023;BMP280;20673;48.980;8.138;2022-09-02T08:20:29;99982.64;;;21.78
34023;BMP280;20673;48.980;8.138;2022-09-02T08:22:58;99980.90;;;21.91
34023;BMP280;20673;48.980;8.138;2022-09-02T08:25:25;99980.82;;;22.12
34023;BMP280;20673;48.980;8.138;2022-09-02T08:27:53;99977.00;;;22.25
34023;BMP280;20673;48.980;8.138;2022-09-02T08:30:20;99980.65;;;22.42
34023;BMP280;20673;48.980;8.138;2022-09-02T08:32:46;99986.85;;;22.67
34023;BMP280;20673;48.980;8.138;2022-09-02T08:35:12;99981.18;;;22.69
34023;BMP280;20673;48.980;8.138;2022-09-02T08:37:38;99984.89;;;22.82
34023;BMP280;20673;48.980;8.138;2022-09-02T08:40:12;99974.72;;;23.00
34023;BMP280;20673;48.980;8.138;2022-09-02T08:42:41;99969.42;;;23.19
34023;BMP280;20673;48.980;8.138;2022-09-02T08:45:32;99963.39;;;23.24
34023;BMP280;20673;48.980;8.138;2022-09-02T08:48:21;99963.90;;;23.49
34023;BMP280;20673;48.980;8.138;2022-09-02T08:50:51;99956.27;;;23.71
34023;BMP280;20673;48.980;8.138;2022-09-02T08:53:43;99961.54;;;23.76
34023;BMP280;20673;48.980;8.138;2022-09-02T08:56:09;99959.12;;;23.89
34023;BMP280;20673;48.980;8.138;2022-09-02T08:58:42;99965.58;;;24.05
34023;BMP280;20673;48.980;8.138;2022-09-02T09:01:40;99965.97;;;24.00
34023;BMP280;20673;48.980;8.138;2022-09-02T09:10:45;99951.32;;;24.87
34023;BMP280;20673;48.980;8.138;2022-09-02T09:16:24;99942.16;;;25.31
34023;BMP280;20673;48.980;8.138;2022-09-02T09:21:33;99954.73;;;25.35
34023;BMP280;20673;48.980;8.138;2022-09-02T09:24:06;99953.06;;;25.36
34023;BMP280;20673;48.980;8.138;2022-09-02T09:26:35;99948.17;;;25.56
34023;BMP280;20673;48.980;8.138;2022-09-02T09:29:03;99954.12;;;25.72
34023;BMP280;20673;48.980;8.138;2022-09-02T09:31:32;99955.22;;;25.77
34023;BMP280;20673;48.980;8.138;2022-09-02T09:34:12;99953.52;;;25.87
34023;BMP280;20673;48.980;8.138;2022-09-02T09:36:55;99936.59;;;25.77
34023;BMP280;20673;48.980;8.138;2022-09-02T09:39:30;99937.89;;;26.04
34023;BMP280;20673;48.980;8.138;2022-09-02T09:42:00;99937.64;;;26.13
34023;BMP280;20673;48.980;8.138;2022-09-02T09:44:44;99936.65;;;26.39
34023;BMP280;20673;48.980;8.138;2022-09-02T09:47:18;99935.64;;;26.34
34023;BMP280;20673;48.980;8.138;2022-09-02T09:49:51;99935.15;;;27.10
34023;BMP280;20673;48.980;8.138;2022-09-02T09:52:29;99930.29;;;27.25
34023;BMP280;20673;48.980;8.138;2022-09-02T09:55:12;99925.65;;;27.32
34023;BMP280;20673;48.980;8.138;2022-09-02T09:57:42;99924.14;;;27.27
34023;BMP280;20673;48.980;8.138;2022-09-02T10:00:26;99919.90;;;27.43
34023;BMP280;20673;48.980;8.138;2022-09-02T10:02:57;99928.27;;;27.90
34023;BMP280;20673;48.980;8.138;2022-09-02T10:05:30;99919.97;;;28.52
34023;BMP280;20673;48.980;8.138;2022-09-02T10:08:01;99925.04;;;28.39
34023;BMP280;20673;48.980;8.138;2022-09-02T10:10:31;99924.15;;;28.88
34023;BMP280;20673;48.980;8.138;2022-09-02T10:18:36;99913.83;;;29.47
34023;BMP280;20673;48.980;8.138;2022-09-02T10:27:00;99893.87;;;30.02
34023;BMP280;20673;48.980;8.138;2022-09-02T10:29:54;99904.68;;;29.71
34023;BMP280;20673;48.980;8.138;2022-09-02T10:32:46;99898.25;;;29.98
34023;BMP280;20673;48.980;8.138;2022-09-02T10:47:16;99866.76;;;30.26
34023;BMP280;20673;48.980;8.138;2022-09-02T10:50:09;99865.76;;;30.01
34023;BMP280;20673;48.980;8.138;2022-09-02T10:58:23;99855.75;;;30.25
34023;BMP280;20673;48.980;8.138;2022-09-02T11:00:54;99849.26;;;30.28
34023;BMP280;20673;48.980;8.138;2022-09-02T11:03:29;99846.09;;;30.72
34023;BMP280;20673;48.980;8.138;2022-09-02T11:08:51;99843.70;;;30.44
34023;BMP280;20673;48.980;8.138;2022-09-02T11:11:33;99831.06;;;30.51
34023;BMP280;20673;48.980;8.138;2022-09-02T11:14:25;99842.72;;;30.68
34023;BMP280;20673;48.980;8.138;2022-09-02T11:16:59;99838.04;;;30.18
34023;BMP280;20673;48.980;8.138;2022-09-02T11:19:45;99836.50;;;30.27
34023;BMP280;20673;48.980;8.138;2022-09-02T11:25:37;99826.90;;;30.70
34023;BMP280;20673;48.980;8.138;2022-09-02T11:30:52;99820.05;;;30.86
34023;BMP280;20673;48.980;8.138;2022-09-02T11:33:23;99825.56;;;30.66
34023;BMP280;20673;48.980;8.138;2022-09-02T11:35:51;99827.77;;;30.40
34023;BMP280;20673;48.980;8.138;2022-09-02T11:41:42;99825.06;;;30.33
34023;BMP280;20673;48.980;8.138;2022-09-02T11:53:13;99817.48;;;30.86
34023;BMP280;20673;48.980;8.138;2022-09-02T11:55:48;99818.58;;;30.81
34023;BMP280;20673;48.980;8.138;2022-09-02T11:58:32;99812.50;;;30.75
34023;BMP280;20673;48.980;8.138;2022-09-02T12:02:03;99803.93;;;30.84
34023;BMP280;20673;48.980;8.138;2022-09-02T12:06:30;99798.43;;;30.53
34023;BMP280;20673;48.980;8.138;2022-09-02T12:09:00;99798.19;;;30.64
34023;BMP280;20673;48.980;8.138;2022-09-02T12:11:46;99799.98;;;30.47
34023;BMP280;20673;48.980;8.138;2022-09-02T12:17:05;99795.01;;;30.76
34023;BMP280;20673;48.980;8.138;2022-09-02T12:19:43;99803.47;;;30.93
34023;BMP280;20673;48.980;8.138;2022-09-02T12:22:20;99798.88;;;30.64
34023;BMP280;20673;48.980;8.138;2022-09-02T12:24:56;99793.27;;;31.18
34023;BMP280;20673;48.980;8.138;2022-09-02T12:27:33;99800.79;;;30.44
34023;BMP280;20673;48.980;8.138;2022-09-02T12:30:05;99805.34;;;30.31
34023;BMP280;20673;48.980;8.138;2022-09-02T12:33:11;99784.99;;;30.78
34023;BMP280;20673;48.980;8.138;2022-09-02T12:38:22;99775.92;;;30.60
34023;BMP280;20673;48.980;8.138;2022-09-02T12:44:00;99754.09;;;31.00
34023;BMP280;20673;48.980;8.138;2022-09-02T12:52:12;99745.12;;;30.87
34023;BMP280;20673;48.980;8.138;2022-09-02T12:54:48;99733.96;;;30.96
34023;BMP280;20673;48.980;8.138;2022-09-02T12:57:17;99733.54;;;30.87
34023;BMP280;20673;48.980;8.138;2022-09-02T12:59:46;99723.68;;;30.84
34023;BMP280;20673;48.980;8.138;2022-09-02T13:22:58;99692.04;;;32.22
34023;BMP280;20673;48.980;8.138;2022-09-02T13:31:24;99686.93;;;31.75
34023;BMP280;20673;48.980;8.138;2022-09-02T13:34:03;99691.15;;;31.59
34023;BMP280;20673;48.980;8.138;2022-09-02T13:36:42;99694.76;;;31.98
34023;BMP280;20673;48.980;8.138;2022-09-02T13:39:25;99689.42;;;31.87
34023;BMP280;20673;48.980;8.138;2022-09-02T13:41:52;99687.64;;;32.04
34023;BMP280;20673;48.980;8.138;2022-09-02T13:44:23;99679.62;;;32.48
34023;BMP280;20673;48.980;8.138;2022-09-02T13:47:11;99669.62;;;32.24
34023;BMP280;20673;48.980;8.138;2022-09-02T13:49:41;99667.26;;;31.90
34023;BMP280;20673;48.980;8.138;2022-09-02T13:52:19;99670.58;;;32.12
34023;BMP280;20673;48.980;8.138;2022-09-02T13:54:53;99670.40;;;31.83
34023;BMP280;20673;48.980;8.138;2022-09-02T13:57:24;99657.87;;;31.40
34023;BMP280;20673;48.980;8.138;2022-09-02T13:59:53;99638.64;;;31.92
34023;BMP280;20673;48.980;8.138;2022-09-02T14:02:35;99642.24;;;32.07
34023;BMP280;20673;48.980;8.138;2022-09-02T14:05:19;99649.59;;;31.42
34023;BMP280;20673;48.980;8.138;2022-09-02T14:07:49;99645.51;;;31.52
34023;BMP280;20673;48.980;8.138;2022-09-02T14:10:20;99638.28;;;32.00
34023;BMP280;20673;48.980;8.138;2022-09-02T14:12:48;99636.15;;;32.10
34023;BMP280;20673;48.980;8.138;2022-09-02T14:15:22;99625.65;;;31.96
34023;BMP280;20673;48.980;8.138;2022-09-02T14:18:11;99623.85;;;31.98
34023;BMP280;20673;48.980;8.138;2022-09-02T14:21:02;99613.22;;;31.81
34023;BMP280;20673;48.980;8.138;2022-09-02T14:23:31;99620.43;;;31.56
34023;BMP280;20673;48.980;8.138;2022-09-02T14:26:00;99613.23;;;31.46
34023;BMP280;20673;48.980;8.138;2022-09-02T14:28:31;99600.90;;;31.87
34023;BMP280;20673;48.980;8.138;2022-09-02T14:31:07;99603.47;;;31.34
34023;BMP280;20673;48.980;8.138;2022-09-02T14:33:44;99596.64;;;31.56
34023;BMP280;20673;48.980;8.138;2022-09-02T14:38:55;99602.34;;;31.84
34023;BMP280;20673;48.980;8.138;2022-09-02T14:41:29;99599.59;;;32.01
34023;BMP280;20673;48.980;8.138;2022-09-02T14:44:30;99604.14;;;31.98
34023;BMP280;20673;48.980;8.138;2022-09-02T14:47:03;99600.14;;;32.25
34023;BMP280;20673;48.980;8.138;2022-09-02T14:49:32;99605.03;;;32.10
34023;BMP280;20673;48.980;8.138;2022-09-02T14:52:04;99602.54;;;32.51
34023;BMP280;20673;48.980;8.138;2022-09-02T14:54:44;99595.28;;;31.77
34023;BMP280;20673;48.980;8.138;2022-09-02T14:57:26;99596.08;;;32.20
34023;BMP280;20673;48.980;8.138;2022-09-02T14:59:55;99590.14;;;32.35
34023;BMP280;20673;48.980;8.138;2022-09-02T15:02:30;99592.20;;;32.06
34023;BMP280;20673;48.980;8.138;2022-09-02T15:05:05;99591.19;;;32.11
34023;BMP280;20673;48.980;8.138;2022-09-02T15:07:28;99593.23;;;31.83
34023;BMP280;20673;48.980;8.138;2022-09-02T15:09:54;99595.20;;;31.73
34023;BMP280;20673;48.980;8.138;2022-09-02T15:12:25;99593.23;;;31.79
34023;BMP280;20673;48.980;8.138;2022-09-02T15:14:55;99586.57;;;31.71
34023;BMP280;20673;48.980;8.138;2022-09-02T15:17:21;99587.40;;;31.91
34023;BMP280;20673;48.980;8.138;2022-09-02T15:19:48;99587.50;;;31.89
34023;BMP280;20673;48.980;8.138;2022-09-02T15:22:16;99591.50;;;31.62
34023;BMP280;20673;48.980;8.138;2022-09-02T15:24:43;99586.98;;;31.64
34023;BMP280;20673;48.980;8.138;2022-09-02T15:27:10;99588.06;;;31.05
34023;BMP280;20673;48.980;8.138;2022-09-02T15:29:36;99589.01;;;31.03
34023;BMP280;20673;48.980;8.138;2022-09-02T15:32:03;99592.03;;;30.95
34023;BMP280;20673;48.980;8.138;2022-09-02T15:34:31;99589.89;;;30.80
34023;BMP280;20673;48.980;8.138;2022-09-02T15:36:57;99585.68;;;30.10
34023;BMP280;20673;48.980;8.138;2022-09-02T15:39:24;99580.17;;;30.03
34023;BMP280;20673;48.980;8.138;2022-09-02T15:41:51;99576.04;;;29.98
34023;BMP280;20673;48.980;8.138;2022-09-02T15:44:19;99577.64;;;29.91
34023;BMP280;20673;48.980;8.138;2022-09-02T15:46:45;99578.65;;;29.77
34023;BMP280;20673;48.980;8.138;2022-09-02T15:49:14;99573.64;;;29.47
34023;BMP280;20673;48.980;8.138;2022-09-02T15:51:43;99565.68;;;29.38
34023;BMP280;20673;48.980;8.138;2022-09-02T15:54:12;99564.89;;;29.01
34023;BMP280;20673;48.980;8.138;2022-09-02T15:56:42;99570.08;;;28.53
34023;BMP280;20673;48.980;8.138;2022-09-02T15:59:15;99568.38;;;28.25
34023;BMP280;20673;48.980;8.138;2022-09-02T16:01:46;99566.63;;;27.83
34023;BMP280;20673;48.980;8.138;2022-09-02T16:04:13;99567.69;;;27.88
34023;BMP280;20673;48.980;8.138;2022-09-02T16:06:43;99562.08;;;27.82
34023;BMP280;20673;48.980;8.138;2022-09-02T16:09:13;99551.62;;;27.61
34023;BMP280;20673;48.980;8.138;2022-09-02T16:11:42;99556.15;;;27.57
34023;BMP280;20673;48.980;8.138;2022-09-02T16:14:09;99557.62;;;27.43
34023;BMP280;20673;48.980;8.138;2022-09-02T16:16:36;99562.09;;;27.44